sensor_id;sensor_type;location;lat;lon;timestamp;P1;durP1;ratioP1;P2;durP2;ratioP2
12302;SDS011;6214;48.012;7.862;2022-12-18T00:02:13;25.67;;;8.27;;
12302;SDS011;6214;48.012;7.862;2022-12-18T00:04:40;27.33;;;10.70;;
12302;SDS011;6214;48.012;7.862;2022-12-18T00:07:07;22.52;;;7.50;;
12302;SDS011;6214;48.012;7.862;2022-12-18T00:09:34;20.90;;;6.50;;
12302;SDS011;6214;48.012;7.862;2022-12-18T00:12:06;20.98;;;6.32;;
12302;SDS011;6214;48.012;7.862;2022-12-18T00:14:41;19.23;;;4.97;;
12302;SDS011;6214;48.012;7.862;2022-12-18T00:17:09;21.40;;;7.93;;
12302;SDS011;6214;48.012;7.862;2022-12-18T00:19:36;22.57;;;8.30;;
12302;SDS011;6214;48.012;7.862;2022-12-18T00:22:03;24.67;;;8.52;;
12302;SDS011;6214;48.012;7.862;2022-12-18T00:24:30;21.90;;;8.13;;
12302;SDS011;6214;48.012;7.862;2022-12-18T00:26:57;23.33;;;8.38;;
12302;SDS011;6214;48.012;7.862;2022-12-18T00:29:23;28.15;;;10.23;;
12302;SDS011;6214;48.012;7.862;2022-12-18T00:31:50;26.20;;;9.60;;
12302;SDS011;6214;48.012;7.862;2022-12-18T00:34:17;24.50;;;8.65;;
12302;SDS011;6214;48.012;7.862;2022-12-18T00:36:46;26.17;;;9.40;;
12302;SDS011;6214;48.012;7.862;2022-12-18T00:39:13;26.45;;;9.18;;
12302;SDS011;6214;48.012;7.862;2022-12-18T00:41:40;28.92;;;11.20;;
12302;SDS011;6214;48.012;7.862;2022-12-18T00:44:26;25.05;;;9.27;;
12302;SDS011;6214;48.012;7.862;2022-12-18T00:46:52;23.88;;;8.15;;
12302;SDS011;6214;48.012;7.862;2022-12-18T00:49:19;25.20;;;9.18;;
12302;SDS011;6214;48.012;7.862;2022-12-18T00:51:47;27.38;;;11.10;;
12302;SDS011;6214;48.012;7.862;2022-12-18T00:54:14;27.60;;;9.77;;
12302;SDS011;6214;48.012;7.862;2022-12-18T00:56:42;27.43;;;10.23;;
12302;SDS011;6214;48.012;7.862;2022-12-18T00:59:17;29.15;;;10.10;;
12302;SDS011;6214;48.012;7.862;2022-12-18T01:01:44;24.85;;;8.27;;
12302;SDS011;6214;48.012;7.862;2022-12-18T01:04:12;21.52;;;8.02;;
12302;SDS011;6214;48.012;7.862;2022-12-18T01:06:39;25.10;;;9.45;;
12302;SDS011;6214;48.012;7.862;2022-12-18T01:09:06;25.70;;;9.40;;
12302;SDS011;6214;48.012;7.862;2022-12-18T01:11:33;26.33;;;9.38;;
12302;SDS011;6214;48.012;7.862;2022-12-18T01:14:00;27.73;;;9.70;;
12302;SDS011;6214;48.012;7.862;2022-12-18T01:16:27;27.20;;;10.27;;
12302;SDS011;6214;48.012;7.862;2022-12-18T01:18:54;25.83;;;9.07;;
12302;SDS011;6214;48.012;7.862;2022-12-18T01:21:21;25.48;;;9.02;;
12302;SDS011;6214;48.012;7.862;2022-12-18T01:23:53;27.05;;;9.77;;
12302;SDS011;6214;48.012;7.862;2022-12-18T01:26:21;24.70;;;9.10;;
12302;SDS011;6214;48.012;7.862;2022-12-18T01:28:48;25.90;;;8.80;;
12302;SDS011;6214;48.012;7.862;2022-12-18T01:31:19;25.08;;;9.00;;
12302;SDS011;6214;48.012;7.862;2022-12-18T01:33:49;23.55;;;8.30;;
12302;SDS011;6214;48.012;7.862;2022-12-18T01:36:18;26.83;;;9.18;;
12302;SDS011;6214;48.012;7.862;2022-12-18T01:38:47;23.55;;;8.38;;
12302;SDS011;6214;48.012;7.862;2022-12-18T01:41:15;22.42;;;6.93;;
12302;SDS011;6214;48.012;7.862;2022-12-18T01:44:01;19.95;;;5.93;;
12302;SDS011;6214;48.012;7.862;2022-12-18T01:46:48;23.52;;;7.28;;
12302;SDS011;6214;48.012;7.862;2022-12-18T01:49:15;22.80;;;8.00;;
12302;SDS011;6214;48.012;7.862;2022-12-18T01:51:41;21.07;;;7.00;;
12302;SDS011;6214;48.012;7.862;2022-12-18T01:54:08;19.95;;;5.53;;
12302;SDS011;6214;48.012;7.862;2022-12-18T01:56:35;19.80;;;6.28;;
12302;SDS011;6214;48.012;7.862;2022-12-18T01:59:03;22.42;;;7.30;;
12302;SDS011;6214;48.012;7.862;2022-12-18T02:01:34;19.75;;;6.70;;
12302;SDS011;6214;48.012;7.862;2022-12-18T02:04:18;20.13;;;6.50;;
12302;SDS011;6214;48.012;7.862;2022-12-18T02:06:54;21.58;;;6.80;;
12302;SDS011;6214;48.012;7.862;2022-12-18T02:09:40;17.70;;;4.95;;
12302;SDS011;6214;48.012;7.862;2022-12-18T02:12:18;18.60;;;5.40;;
12302;SDS011;6214;48.012;7.862;2022-12-18T02:17:36;23.00;;;7.75;;
12302;SDS011;6214;48.012;7.862;2022-12-18T02:25:53;22.52;;;7.55;;
12302;SDS011;6214;48.012;7.862;2022-12-18T02:28:40;20.80;;;6.85;;
12302;SDS011;6214;48.012;7.862;2022-12-18T02:31:24;24.17;;;8.60;;
12302;SDS011;6214;48.012;7.862;2022-12-18T02:33:58;20.10;;;6.47;;
12302;SDS011;6214;48.012;7.862;2022-12-18T02:36:28;20.10;;;6.80;;
12302;SDS011;6214;48.012;7.862;2022-12-18T02:38:57;21.63;;;7.20;;
12302;SDS011;6214;48.012;7.862;2022-12-18T02:41:26;20.55;;;6.47;;
12302;SDS011;6214;48.012;7.862;2022-12-18T02:43:58;22.33;;;7.75;;
12302;SDS011;6214;48.012;7.862;2022-12-18T02:46:35;24.90;;;8.20;;
12302;SDS011;6214;48.012;7.862;2022-12-18T02:49:12;25.73;;;9.32;;
12302;SDS011;6214;48.012;7.862;2022-12-18T02:51:44;24.38;;;9.15;;
12302;SDS011;6214;48.012;7.862;2022-12-18T02:57:05;23.85;;;8.32;;
12302;SDS011;6214;48.012;7.862;2022-12-18T02:59:44;22.45;;;6.88;;
12302;SDS011;6214;48.012;7.862;2022-12-18T03:02:35;19.08;;;5.20;;
12302;SDS011;6214;48.012;7.862;2022-12-18T03:05:27;18.95;;;5.45;;
12302;SDS011;6214;48.012;7.862;2022-12-18T03:08:04;25.25;;;8.15;;
12302;SDS011;6214;48.012;7.862;2022-12-18T03:10:35;25.35;;;8.70;;
12302;SDS011;6214;48.012;7.862;2022-12-18T03:13:28;24.97;;;8.87;;
12302;SDS011;6214;48.012;7.862;2022-12-18T03:15:57;24.88;;;8.40;;
12302;SDS011;6214;48.012;7.862;2022-12-18T03:18:35;25.83;;;9.13;;
12302;SDS011;6214;48.012;7.862;2022-12-18T03:21:04;21.65;;;7.05;;
12302;SDS011;6214;48.012;7.862;2022-12-18T03:23:34;26.08;;;9.45;;
12302;SDS011;6214;48.012;7.862;2022-12-18T03:26:09;23.20;;;8.38;;
12302;SDS011;6214;48.012;7.862;2022-12-18T03:28:42;26.40;;;9.18;;
12302;SDS011;6214;48.012;7.862;2022-12-18T03:31:14;21.45;;;6.88;;
12302;SDS011;6214;48.012;7.862;2022-12-18T03:33:43;24.02;;;9.48;;
12302;SDS011;6214;48.012;7.862;2022-12-18T03:36:12;25.23;;;9.47;;
12302;SDS011;6214;48.012;7.862;2022-12-18T03:38:39;26.45;;;10.00;;
12302;SDS011;6214;48.012;7.862;2022-12-18T03:43:58;25.38;;;9.38;;
12302;SDS011;6214;48.012;7.862;2022-12-18T03:46:47;24.17;;;8.70;;
12302;SDS011;6214;48.012;7.862;2022-12-18T03:52:20;21.65;;;8.07;;
12302;SDS011;6214;48.012;7.862;2022-12-18T03:54:57;24.58;;;8.00;;
12302;SDS011;6214;48.012;7.862;2022-12-18T03:57:26;20.13;;;6.38;;
12302;SDS011;6214;48.012;7.862;2022-12-18T03:59:56;24.60;;;8.45;;
12302;SDS011;6214;48.012;7.862;2022-12-18T04:02:33;21.85;;;6.57;;
12302;SDS011;6214;48.012;7.862;2022-12-18T04:05:01;22.85;;;8.00;;
12302;SDS011;6214;48.012;7.862;2022-12-18T04:07:31;22.48;;;7.50;;
12302;SDS011;6214;48.012;7.862;2022-12-18T04:09:59;21.58;;;6.80;;
12302;SDS011;6214;48.012;7.862;2022-12-18T04:12:28;21.92;;;8.50;;
12302;SDS011;6214;48.012;7.862;2022-12-18T04:14:56;23.08;;;8.35;;
12302;SDS011;6214;48.012;7.862;2022-12-18T04:17:23;21.67;;;6.88;;
12302;SDS011;6214;48.012;7.862;2022-12-18T04:19:50;22.48;;;7.28;;
12302;SDS011;6214;48.012;7.862;2022-12-18T04:22:16;20.40;;;6.55;;
12302;SDS011;6214;48.012;7.862;2022-12-18T04:24:43;19.90;;;5.95;;
12302;SDS011;6214;48.012;7.862;2022-12-18T04:27:10;20.92;;;6.65;;
12302;SDS011;6214;48.012;7.862;2022-12-18T04:29:37;18.83;;;5.60;;
12302;SDS011;6214;48.012;7.862;2022-12-18T04:32:04;17.17;;;5.00;;
12302;SDS011;6214;48.012;7.862;2022-12-18T04:34:31;18.05;;;4.70;;
12302;SDS011;6214;48.012;7.862;2022-12-18T04:36:57;17.60;;;4.90;;
12302;SDS011;6214;48.012;7.862;2022-12-18T04:39:24;19.77;;;6.07;;
12302;SDS011;6214;48.012;7.862;2022-12-18T04:41:51;18.77;;;4.72;;
12302;SDS011;6214;48.012;7.862;2022-12-18T04:44:18;16.40;;;4.70;;
12302;SDS011;6214;48.012;7.862;2022-12-18T04:46:45;15.73;;;3.90;;
12302;SDS011;6214;48.012;7.862;2022-12-18T04:49:12;16.65;;;4.43;;
12302;SDS011;6214;48.012;7.862;2022-12-18T04:51:39;17.20;;;5.20;;
12302;SDS011;6214;48.012;7.862;2022-12-18T04:54:05;20.15;;;6.10;;
12302;SDS011;6214;48.012;7.862;2022-12-18T04:56:32;19.17;;;6.13;;
12302;SDS011;6214;48.012;7.862;2022-12-18T04:58:59;18.73;;;5.80;;
12302;SDS011;6214;48.012;7.862;2022-12-18T05:01:26;21.77;;;6.68;;
12302;SDS011;6214;48.012;7.862;2022-12-18T05:04:00;24.30;;;8.00;;
12302;SDS011;6214;48.012;7.862;2022-12-18T05:06:27;22.90;;;8.25;;
12302;SDS011;6214;48.012;7.862;2022-12-18T05:08:54;22.67;;;7.32;;
12302;SDS011;6214;48.012;7.862;2022-12-18T05:11:21;20.27;;;7.20;;
12302;SDS011;6214;48.012;7.862;2022-12-18T05:13:48;23.65;;;8.85;;
12302;SDS011;6214;48.012;7.862;2022-12-18T05:16:14;21.52;;;7.07;;
12302;SDS011;6214;48.012;7.862;2022-12-18T05:18:41;21.40;;;7.40;;
12302;SDS011;6214;48.012;7.862;2022-12-18T05:21:08;21.80;;;6.82;;
12302;SDS011;6214;48.012;7.862;2022-12-18T05:23:35;21.38;;;7.22;;
12302;SDS011;6214;48.012;7.862;2022-12-18T05:26:04;19.27;;;5.20;;
12302;SDS011;6214;48.012;7.862;2022-12-18T05:28:33;19.92;;;5.82;;
12302;SDS011;6214;48.012;7.862;2022-12-18T05:31:01;18.83;;;5.50;;
12302;SDS011;6214;48.012;7.862;2022-12-18T05:33:30;18.48;;;4.65;;
12302;SDS011;6214;48.012;7.862;2022-12-18T05:35:59;17.08;;;3.83;;
12302;SDS011;6214;48.012;7.862;2022-12-18T05:38:27;20.27;;;6.00;;
12302;SDS011;6214;48.012;7.862;2022-12-18T05:40:56;20.58;;;7.10;;
12302;SDS011;6214;48.012;7.862;2022-12-18T05:43:24;22.63;;;7.00;;
12302;SDS011;6214;48.012;7.862;2022-12-18T05:45:52;19.58;;;6.05;;
12302;SDS011;6214;48.012;7.862;2022-12-18T05:48:19;24.45;;;7.65;;
12302;SDS011;6214;48.012;7.862;2022-12-18T05:50:47;23.17;;;8.93;;
12302;SDS011;6214;48.012;7.862;2022-12-18T05:53:15;23.05;;;8.18;;
12302;SDS011;6214;48.012;7.862;2022-12-18T05:55:43;22.55;;;7.90;;
12302;SDS011;6214;48.012;7.862;2022-12-18T05:58:11;20.13;;;6.50;;
12302;SDS011;6214;48.012;7.862;2022-12-18T06:00:39;22.95;;;7.25;;
12302;SDS011;6214;48.012;7.862;2022-12-18T06:03:09;25.42;;;9.02;;
12302;SDS011;6214;48.012;7.862;2022-12-18T06:05:39;22.77;;;8.93;;
12302;SDS011;6214;48.012;7.862;2022-12-18T06:08:08;22.50;;;7.38;;
12302;SDS011;6214;48.012;7.862;2022-12-18T06:10:35;19.48;;;6.70;;
12302;SDS011;6214;48.012;7.862;2022-12-18T06:13:03;22.15;;;7.10;;
12302;SDS011;6214;48.012;7.862;2022-12-18T06:15:31;24.38;;;8.23;;
12302;SDS011;6214;48.012;7.862;2022-12-18T06:17:59;22.95;;;8.10;;
12302;SDS011;6214;48.012;7.862;2022-12-18T06:20:26;20.25;;;6.35;;
12302;SDS011;6214;48.012;7.862;2022-12-18T06:22:58;21.17;;;7.27;;
12302;SDS011;6214;48.012;7.862;2022-12-18T06:25:26;22.65;;;8.45;;
12302;SDS011;6214;48.012;7.862;2022-12-18T06:27:52;23.60;;;7.90;;
12302;SDS011;6214;48.012;7.862;2022-12-18T06:30:19;21.73;;;7.90;;
12302;SDS011;6214;48.012;7.862;2022-12-18T06:32:47;22.98;;;7.53;;
12302;SDS011;6214;48.012;7.862;2022-12-18T06:35:21;22.63;;;7.93;;
12302;SDS011;6214;48.012;7.862;2022-12-18T06:37:48;23.08;;;8.65;;
12302;SDS011;6214;48.012;7.862;2022-12-18T06:40:15;22.05;;;7.00;;
12302;SDS011;6214;48.012;7.862;2022-12-18T06:42:42;22.65;;;6.82;;
12302;SDS011;6214;48.012;7.862;2022-12-18T06:45:09;21.20;;;6.78;;
12302;SDS011;6214;48.012;7.862;2022-12-18T06:47:37;19.85;;;7.28;;
12302;SDS011;6214;48.012;7.862;2022-12-18T06:50:04;22.77;;;6.75;;
12302;SDS011;6214;48.012;7.862;2022-12-18T06:52:32;20.77;;;7.47;;
12302;SDS011;6214;48.012;7.862;2022-12-18T06:54:59;21.37;;;7.07;;
12302;SDS011;6214;48.012;7.862;2022-12-18T06:57:26;21.85;;;7.00;;
12302;SDS011;6214;48.012;7.862;2022-12-18T06:59:53;21.98;;;7.47;;
12302;SDS011;6214;48.012;7.862;2022-12-18T07:02:20;22.20;;;7.28;;
12302;SDS011;6214;48.012;7.862;2022-12-18T07:04:47;21.27;;;6.68;;
12302;SDS011;6214;48.012;7.862;2022-12-18T07:07:15;19.90;;;6.60;;
12302;SDS011;6214;48.012;7.862;2022-12-18T07:09:42;19.63;;;6.43;;
12302;SDS011;6214;48.012;7.862;2022-12-18T07:12:09;18.27;;;5.20;;
12302;SDS011;6214;48.012;7.862;2022-12-18T07:14:36;19.25;;;6.15;;
12302;SDS011;6214;48.012;7.862;2022-12-18T07:17:02;22.48;;;7.80;;
12302;SDS011;6214;48.012;7.862;2022-12-18T07:19:31;22.25;;;7.20;;
12302;SDS011;6214;48.012;7.862;2022-12-18T07:21:57;21.30;;;6.53;;
12302;SDS011;6214;48.012;7.862;2022-12-18T07:24:24;20.77;;;5.90;;
12302;SDS011;6214;48.012;7.862;2022-12-18T07:26:51;22.02;;;6.90;;
12302;SDS011;6214;48.012;7.862;2022-12-18T07:29:17;19.08;;;5.95;;
12302;SDS011;6214;48.012;7.862;2022-12-18T07:31:44;19.17;;;5.57;;
12302;SDS011;6214;48.012;7.862;2022-12-18T07:34:12;21.63;;;6.72;;
12302;SDS011;6214;48.012;7.862;2022-12-18T07:36:40;21.90;;;7.40;;
12302;SDS011;6214;48.012;7.862;2022-12-18T07:39:07;20.98;;;6.60;;
12302;SDS011;6214;48.012;7.862;2022-12-18T07:41:34;21.33;;;6.90;;
12302;SDS011;6214;48.012;7.862;2022-12-18T07:44:01;21.60;;;7.20;;
12302;SDS011;6214;48.012;7.862;2022-12-18T07:46:28;22.25;;;7.80;;
12302;SDS011;6214;48.012;7.862;2022-12-18T07:48:54;19.90;;;6.45;;
12302;SDS011;6214;48.012;7.862;2022-12-18T07:51:21;19.88;;;5.80;;
12302;SDS011;6214;48.012;7.862;2022-12-18T07:53:48;19.58;;;6.32;;
12302;SDS011;6214;48.012;7.862;2022-12-18T07:56:17;19.77;;;6.40;;
12302;SDS011;6214;48.012;7.862;2022-12-18T07:58:55;18.70;;;5.80;;
12302;SDS011;6214;48.012;7.862;2022-12-18T08:01:22;19.00;;;5.43;;
12302;SDS011;6214;48.012;7.862;2022-12-18T08:03:49;18.27;;;5.03;;
12302;SDS011;6214;48.012;7.862;2022-12-18T08:06:17;17.35;;;5.30;;
12302;SDS011;6214;48.012;7.862;2022-12-18T08:08:50;18.20;;;5.18;;
12302;SDS011;6214;48.012;7.862;2022-12-18T08:11:18;17.25;;;4.60;;
12302;SDS011;6214;48.012;7.862;2022-12-18T08:13:46;17.80;;;4.55;;
12302;SDS011;6214;48.012;7.862;2022-12-18T08:16:13;17.73;;;4.32;;
12302;SDS011;6214;48.012;7.862;2022-12-18T08:18:40;20.83;;;6.32;;
12302;SDS011;6214;48.012;7.862;2022-12-18T08:21:14;19.73;;;5.70;;
12302;SDS011;6214;48.012;7.862;2022-12-18T08:23:47;17.73;;;4.80;;
12302;SDS011;6214;48.012;7.862;2022-12-18T08:26:16;17.60;;;5.10;;
12302;SDS011;6214;48.012;7.862;2022-12-18T08:28:44;20.40;;;6.18;;
12302;SDS011;6214;48.012;7.862;2022-12-18T08:31:11;20.77;;;6.13;;
12302;SDS011;6214;48.012;7.862;2022-12-18T08:33:38;20.48;;;6.60;;
12302;SDS011;6214;48.012;7.862;2022-12-18T08:36:07;22.60;;;8.30;;
12302;SDS011;6214;48.012;7.862;2022-12-18T08:38:35;20.98;;;7.72;;
12302;SDS011;6214;48.012;7.862;2022-12-18T08:41:05;20.98;;;7.05;;
12302;SDS011;6214;48.012;7.862;2022-12-18T08:43:34;20.80;;;6.93;;
12302;SDS011;6214;48.012;7.862;2022-12-18T08:46:20;22.73;;;8.32;;
12302;SDS011;6214;48.012;7.862;2022-12-18T08:48:49;21.75;;;7.70;;
12302;SDS011;6214;48.012;7.862;2022-12-18T08:51:17;19.20;;;6.55;;
12302;SDS011;6214;48.012;7.862;2022-12-18T08:53:44;22.80;;;7.63;;
12302;SDS011;6214;48.012;7.862;2022-12-18T08:56:12;22.23;;;8.30;;
12302;SDS011;6214;48.012;7.862;2022-12-18T08:58:40;26.25;;;9.35;;
12302;SDS011;6214;48.012;7.862;2022-12-18T09:01:09;23.80;;;9.50;;
12302;SDS011;6214;48.012;7.862;2022-12-18T09:03:38;23.43;;;8.53;;
12302;SDS011;6214;48.012;7.862;2022-12-18T09:06:06;22.13;;;8.40;;
12302;SDS011;6214;48.012;7.862;2022-12-18T09:08:33;24.23;;;8.10;;
12302;SDS011;6214;48.012;7.862;2022-12-18T09:11:00;20.70;;;6.70;;
12302;SDS011;6214;48.012;7.862;2022-12-18T09:13:28;21.70;;;7.68;;
12302;SDS011;6214;48.012;7.862;2022-12-18T09:15:55;21.33;;;8.07;;
12302;SDS011;6214;48.012;7.862;2022-12-18T09:18:22;21.65;;;7.13;;
12302;SDS011;6214;48.012;7.862;2022-12-18T09:20:49;21.20;;;7.60;;
12302;SDS011;6214;48.012;7.862;2022-12-18T09:23:18;23.55;;;8.20;;
12302;SDS011;6214;48.012;7.862;2022-12-18T09:25:45;22.70;;;7.30;;
12302;SDS011;6214;48.012;7.862;2022-12-18T09:28:16;21.90;;;7.72;;
12302;SDS011;6214;48.012;7.862;2022-12-18T09:30:46;24.45;;;9.98;;
12302;SDS011;6214;48.012;7.862;2022-12-18T09:33:15;25.27;;;10.05;;
12302;SDS011;6214;48.012;7.862;2022-12-18T09:35:43;22.95;;;8.63;;
12302;SDS011;6214;48.012;7.862;2022-12-18T09:38:11;21.48;;;7.30;;
12302;SDS011;6214;48.012;7.862;2022-12-18T09:40:50;18.90;;;6.20;;
12302;SDS011;6214;48.012;7.862;2022-12-18T09:43:41;18.40;;;6.20;;
12302;SDS011;6214;48.012;7.862;2022-12-18T09:46:24;18.33;;;5.85;;
12302;SDS011;6214;48.012;7.862;2022-12-18T09:48:56;23.90;;;8.68;;
12302;SDS011;6214;48.012;7.862;2022-12-18T09:51:30;22.42;;;8.60;;
12302;SDS011;6214;48.012;7.862;2022-12-18T09:54:04;25.27;;;9.73;;
12302;SDS011;6214;48.012;7.862;2022-12-18T09:56:53;20.85;;;7.40;;
12302;SDS011;6214;48.012;7.862;2022-12-18T09:59:41;18.23;;;5.70;;
12302;SDS011;6214;48.012;7.862;2022-12-18T10:02:12;17.20;;;4.63;;
12302;SDS011;6214;48.012;7.862;2022-12-18T10:04:46;16.77;;;4.50;;
12302;SDS011;6214;48.012;7.862;2022-12-18T10:10:36;17.73;;;4.80;;
12302;SDS011;6214;48.012;7.862;2022-12-18T10:16:19;17.02;;;4.90;;
12302;SDS011;6214;48.012;7.862;2022-12-18T10:22:22;19.23;;;5.40;;
12302;SDS011;6214;48.012;7.862;2022-12-18T10:27:52;22.63;;;7.95;;
12302;SDS011;6214;48.012;7.862;2022-12-18T10:30:23;20.85;;;7.82;;
12302;SDS011;6214;48.012;7.862;2022-12-18T10:32:51;19.45;;;7.18;;
12302;SDS011;6214;48.012;7.862;2022-12-18T10:35:19;21.60;;;7.67;;
12302;SDS011;6214;48.012;7.862;2022-12-18T10:40:57;21.58;;;6.85;;
12302;SDS011;6214;48.012;7.862;2022-12-18T10:43:33;22.17;;;7.78;;
12302;SDS011;6214;48.012;7.862;2022-12-18T10:48:36;25.17;;;9.55;;
12302;SDS011;6214;48.012;7.862;2022-12-18T10:51:07;23.85;;;10.02;;
12302;SDS011;6214;48.012;7.862;2022-12-18T10:53:39;25.65;;;9.88;;
12302;SDS011;6214;48.012;7.862;2022-12-18T10:56:08;23.65;;;9.77;;
12302;SDS011;6214;48.012;7.862;2022-12-18T10:58:36;22.08;;;8.57;;
12302;SDS011;6214;48.012;7.862;2022-12-18T11:01:15;28.35;;;11.15;;
12302;SDS011;6214;48.012;7.862;2022-12-18T11:03:58;24.98;;;10.93;;
12302;SDS011;6214;48.012;7.862;2022-12-18T11:06:28;23.93;;;9.77;;
12302;SDS011;6214;48.012;7.862;2022-12-18T11:11:57;20.40;;;7.00;;
12302;SDS011;6214;48.012;7.862;2022-12-18T11:14:32;21.98;;;8.38;;
12302;SDS011;6214;48.012;7.862;2022-12-18T11:17:19;22.98;;;8.68;;
12302;SDS011;6214;48.012;7.862;2022-12-18T11:19:58;23.85;;;8.90;;
12302;SDS011;6214;48.012;7.862;2022-12-18T11:22:28;23.73;;;9.15;;
12302;SDS011;6214;48.012;7.862;2022-12-18T11:27:54;26.55;;;11.07;;
12302;SDS011;6214;48.012;7.862;2022-12-18T11:30:26;22.55;;;8.75;;
12302;SDS011;6214;48.012;7.862;2022-12-18T11:33:04;21.17;;;8.23;;
12302;SDS011;6214;48.012;7.862;2022-12-18T11:35:58;22.33;;;8.00;;
12302;SDS011;6214;48.012;7.862;2022-12-18T11:38:31;18.45;;;5.90;;
12302;SDS011;6214;48.012;7.862;2022-12-18T11:44:35;20.73;;;7.40;;
12302;SDS011;6214;48.012;7.862;2022-12-18T11:50:10;22.92;;;9.15;;
12302;SDS011;6214;48.012;7.862;2022-12-18T11:52:42;24.15;;;9.35;;
12302;SDS011;6214;48.012;7.862;2022-12-18T12:00:29;19.42;;;6.20;;
12302;SDS011;6214;48.012;7.862;2022-12-18T12:03:05;21.35;;;7.47;;
12302;SDS011;6214;48.012;7.862;2022-12-18T12:14:13;24.00;;;9.50;;
12302;SDS011;6214;48.012;7.862;2022-12-18T12:16:49;22.80;;;9.00;;
12302;SDS011;6214;48.012;7.862;2022-12-18T12:30:32;18.83;;;6.22;;
12302;SDS011;6214;48.012;7.862;2022-12-18T12:33:48;22.73;;;9.40;;
12302;SDS011;6214;48.012;7.862;2022-12-18T12:39:39;21.63;;;8.82;;
12302;SDS011;6214;48.012;7.862;2022-12-18T12:42:13;24.05;;;10.90;;
12302;SDS011;6214;48.012;7.862;2022-12-18T12:45:13;24.30;;;9.70;;
12302;SDS011;6214;48.012;7.862;2022-12-18T12:47:46;21.08;;;8.43;;
12302;SDS011;6214;48.012;7.862;2022-12-18T12:50:17;23.27;;;9.80;;
12302;SDS011;6214;48.012;7.862;2022-12-18T12:52:52;26.17;;;10.88;;
12302;SDS011;6214;48.012;7.862;2022-12-18T12:55:22;23.85;;;9.85;;
12302;SDS011;6214;48.012;7.862;2022-12-18T13:00:27;25.00;;;10.13;;
12302;SDS011;6214;48.012;7.862;2022-12-18T13:08:24;23.20;;;9.65;;
12302;SDS011;6214;48.012;7.862;2022-12-18T13:10:59;21.92;;;8.60;;
12302;SDS011;6214;48.012;7.862;2022-12-18T13:13:52;22.08;;;8.55;;
12302;SDS011;6214;48.012;7.862;2022-12-18T13:16:25;20.92;;;7.03;;
12302;SDS011;6214;48.012;7.862;2022-12-18T13:18:54;19.52;;;7.50;;
12302;SDS011;6214;48.012;7.862;2022-12-18T13:21:27;17.25;;;6.15;;
12302;SDS011;6214;48.012;7.862;2022-12-18T13:24:14;22.55;;;8.82;;
12302;SDS011;6214;48.012;7.862;2022-12-18T13:26:48;22.33;;;8.93;;
12302;SDS011;6214;48.012;7.862;2022-12-18T13:32:25;20.38;;;8.07;;
12302;SDS011;6214;48.012;7.862;2022-12-18T13:37:51;19.97;;;7.63;;
12302;SDS011;6214;48.012;7.862;2022-12-18T13:48:51;18.80;;;6.90;;
12302;SDS011;6214;48.012;7.862;2022-12-18T13:51:23;19.38;;;7.38;;
12302;SDS011;6214;48.012;7.862;2022-12-18T13:53:53;22.00;;;7.75;;
12302;SDS011;6214;48.012;7.862;2022-12-18T13:56:25;18.08;;;7.32;;
12302;SDS011;6214;48.012;7.862;2022-12-18T13:59:05;18.15;;;6.30;;
12302;SDS011;6214;48.012;7.862;2022-12-18T14:01:52;17.00;;;5.70;;
12302;SDS011;6214;48.012;7.862;2022-12-18T14:06:48;16.10;;;5.03;;
12302;SDS011;6214;48.012;7.862;2022-12-18T14:09:20;17.73;;;5.27;;
12302;SDS011;6214;48.012;7.862;2022-12-18T14:11:55;19.53;;;6.80;;
12302;SDS011;6214;48.012;7.862;2022-12-18T14:14:44;19.33;;;7.10;;
12302;SDS011;6214;48.012;7.862;2022-12-18T14:17:14;16.38;;;5.75;;
12302;SDS011;6214;48.012;7.862;2022-12-18T14:19:49;18.60;;;6.40;;
12302;SDS011;6214;48.012;7.862;2022-12-18T14:22:21;17.27;;;6.03;;
12302;SDS011;6214;48.012;7.862;2022-12-18T14:25:10;18.35;;;6.40;;
12302;SDS011;6214;48.012;7.862;2022-12-18T14:27:47;17.48;;;6.60;;
12302;SDS011;6214;48.012;7.862;2022-12-18T14:35:36;19.30;;;6.28;;
12302;SDS011;6214;48.012;7.862;2022-12-18T14:40:53;15.10;;;4.25;;
12302;SDS011;6214;48.012;7.862;2022-12-18T14:43:23;17.33;;;5.80;;
12302;SDS011;6214;48.012;7.862;2022-12-18T14:45:50;17.70;;;5.60;;
12302;SDS011;6214;48.012;7.862;2022-12-18T14:48:22;16.95;;;5.22;;
12302;SDS011;6214;48.012;7.862;2022-12-18T14:51:21;16.63;;;5.32;;
12302;SDS011;6214;48.012;7.862;2022-12-18T14:53:55;18.67;;;6.20;;
12302;SDS011;6214;48.012;7.862;2022-12-18T14:56:34;19.92;;;7.32;;
12302;SDS011;6214;48.012;7.862;2022-12-18T14:59:04;21.10;;;8.52;;
12302;SDS011;6214;48.012;7.862;2022-12-18T15:01:44;21.80;;;8.98;;
12302;SDS011;6214;48.012;7.862;2022-12-18T15:04:25;20.63;;;8.17;;
12302;SDS011;6214;48.012;7.862;2022-12-18T15:09:31;19.70;;;7.70;;
12302;SDS011;6214;48.012;7.862;2022-12-18T15:12:00;18.23;;;6.10;;
12302;SDS011;6214;48.012;7.862;2022-12-18T15:14:40;17.60;;;5.57;;
12302;SDS011;6214;48.012;7.862;2022-12-18T15:19:45;16.95;;;5.07;;
12302;SDS011;6214;48.012;7.862;2022-12-18T15:22:55;18.40;;;6.00;;
12302;SDS011;6214;48.012;7.862;2022-12-18T15:25:04;21.58;;;9.05;;
12302;SDS011;6214;48.012;7.862;2022-12-18T15:27:58;21.42;;;8.13;;
12302;SDS011;6214;48.012;7.862;2022-12-18T15:30:25;18.77;;;6.95;;
12302;SDS011;6214;48.012;7.862;2022-12-18T15:32:52;17.98;;;5.40;;
12302;SDS011;6214;48.012;7.862;2022-12-18T15:35:55;17.20;;;5.00;;
12302;SDS011;6214;48.012;7.862;2022-12-18T15:38:23;17.15;;;5.38;;
12302;SDS011;6214;48.012;7.862;2022-12-18T15:40:50;16.43;;;4.90;;
12302;SDS011;6214;48.012;7.862;2022-12-18T15:43:19;15.40;;;4.50;;
12302;SDS011;6214;48.012;7.862;2022-12-18T15:46:04;17.13;;;5.35;;
12302;SDS011;6214;48.012;7.862;2022-12-18T15:48:37;16.85;;;5.25;;
12302;SDS011;6214;48.012;7.862;2022-12-18T15:51:11;17.33;;;6.15;;
12302;SDS011;6214;48.012;7.862;2022-12-18T15:53:48;17.77;;;5.60;;
12302;SDS011;6214;48.012;7.862;2022-12-18T15:56:18;18.33;;;6.47;;
12302;SDS011;6214;48.012;7.862;2022-12-18T15:59:07;17.05;;;5.60;;
12302;SDS011;6214;48.012;7.862;2022-12-18T16:01:39;19.00;;;6.90;;
12302;SDS011;6214;48.012;7.862;2022-12-18T16:04:11;17.38;;;5.80;;
12302;SDS011;6214;48.012;7.862;2022-12-18T16:06:39;17.65;;;5.90;;
12302;SDS011;6214;48.012;7.862;2022-12-18T16:09:27;16.45;;;4.95;;
12302;SDS011;6214;48.012;7.862;2022-12-18T16:11:55;17.30;;;5.85;;
12302;SDS011;6214;48.012;7.862;2022-12-18T16:14:23;17.42;;;5.68;;
12302;SDS011;6214;48.012;7.862;2022-12-18T16:16:53;19.02;;;6.05;;
12302;SDS011;6214;48.012;7.862;2022-12-18T16:19:22;17.20;;;6.30;;
12302;SDS011;6214;48.012;7.862;2022-12-18T16:21:51;17.35;;;5.72;;
12302;SDS011;6214;48.012;7.862;2022-12-18T16:24:23;16.83;;;5.55;;
12302;SDS011;6214;48.012;7.862;2022-12-18T16:26:56;19.65;;;7.45;;
12302;SDS011;6214;48.012;7.862;2022-12-18T16:29:25;22.40;;;9.30;;
12302;SDS011;6214;48.012;7.862;2022-12-18T16:31:57;21.33;;;8.05;;
12302;SDS011;6214;48.012;7.862;2022-12-18T16:34:29;18.73;;;6.72;;
12302;SDS011;6214;48.012;7.862;2022-12-18T16:37:02;18.52;;;6.50;;
12302;SDS011;6214;48.012;7.862;2022-12-18T16:39:32;19.05;;;6.70;;
12302;SDS011;6214;48.012;7.862;2022-12-18T16:42:01;20.88;;;7.18;;
12302;SDS011;6214;48.012;7.862;2022-12-18T16:44:34;19.95;;;6.70;;
12302;SDS011;6214;48.012;7.862;2022-12-18T16:47:02;20.60;;;7.82;;
12302;SDS011;6214;48.012;7.862;2022-12-18T16:49:30;19.27;;;7.93;;
12302;SDS011;6214;48.012;7.862;2022-12-18T16:51:57;20.70;;;7.80;;
12302;SDS011;6214;48.012;7.862;2022-12-18T16:54:24;19.70;;;7.30;;
12302;SDS011;6214;48.012;7.862;2022-12-18T16:56:51;19.30;;;7.07;;
12302;SDS011;6214;48.012;7.862;2022-12-18T16:59:18;18.85;;;6.50;;
12302;SDS011;6214;48.012;7.862;2022-12-18T17:01:45;18.00;;;5.55;;
12302;SDS011;6214;48.012;7.862;2022-12-18T17:04:13;16.23;;;5.13;;
12302;SDS011;6214;48.012;7.862;2022-12-18T17:06:41;20.17;;;7.68;;
12302;SDS011;6214;48.012;7.862;2022-12-18T17:09:11;25.10;;;9.50;;